SBI9283 USCC-UUDD
Flight info
| Callsign | SBI9283 |
|---|---|
| Flight time | 2h 4m |
| Altitude | 38000 |
| Route | BEDOT2F BEDOT L158 URIDU T535 OKNAN T787 URAGO URAGO3L |
| Aircraft | A320/M-V/N |
Departure
| Time | 2026-05-05 11:37 |
|---|---|
| Airport | Kurchatov Chelyabinsk International Airport (USCC) |
Arrival
| Time | 2026-05-05 13:42 |
|---|---|
| Airport | Domodedovo International Airport (UUDD) |
| Time | Latitude | Longitude | Altitude | Speed | Heading |
|---|---|---|---|---|---|
| 2026-05-05 11:25 | 55.30018 | 61.50962 | 747 ft | 0 kts | 193° |
| 2026-05-05 11:32 | 55.30000 | 61.50956 | 747 ft | 7 kts | 187° |
| 2026-05-05 11:33 | 55.29960 | 61.50994 | 746 ft | 6 kts | 111° |
| 2026-05-05 11:33 | 55.29946 | 61.51079 | 745 ft | 8 kts | 105° |
| 2026-05-05 11:33 | 55.29929 | 61.51200 | 744 ft | 11 kts | 103° |
| 2026-05-05 11:33 | 55.29911 | 61.51340 | 744 ft | 12 kts | 103° |
| 2026-05-05 11:34 | 55.29896 | 61.51503 | 740 ft | 14 kts | 81° |
| 2026-05-05 11:34 | 55.29973 | 61.51605 | 740 ft | 14 kts | 58° |
| 2026-05-05 11:34 | 55.29965 | 61.51773 | 740 ft | 14 kts | 104° |
| 2026-05-05 11:34 | 55.29940 | 61.51951 | 738 ft | 16 kts | 103° |
| 2026-05-05 11:35 | 55.29912 | 61.52152 | 737 ft | 17 kts | 104° |
| 2026-05-05 11:35 | 55.29884 | 61.52350 | 737 ft | 15 kts | 104° |
| 2026-05-05 11:35 | 55.29926 | 61.52519 | 734 ft | 17 kts | 44° |
| 2026-05-05 11:35 | 55.30018 | 61.52669 | 731 ft | 18 kts | 42° |
| 2026-05-05 11:36 | 55.30119 | 61.52732 | 730 ft | 13 kts | 12° |
| 2026-05-05 11:36 | 55.30212 | 61.52764 | 729 ft | 13 kts | 354° |
| 2026-05-05 11:36 | 55.30268 | 61.52565 | 733 ft | 44 kts | 286° |
| 2026-05-05 11:36 | 55.30409 | 61.51601 | 742 ft | 115 kts | 283° |
| 2026-05-05 11:37 | 55.30644 | 61.49918 | 865 ft | 161 kts | 287° |
| 2026-05-05 11:37 | 55.30904 | 61.47913 | 1363 ft | 178 kts | 286° |
| 2026-05-05 11:37 | 55.31260 | 61.45701 | 1776 ft | 206 kts | 292° |
| 2026-05-05 11:37 | 55.32003 | 61.43296 | 1908 ft | 247 kts | 317° |
| 2026-05-05 11:38 | 55.33418 | 61.41351 | 2464 ft | 272 kts | 324° |
| 2026-05-05 11:38 | 55.34903 | 61.39094 | 3082 ft | 277 kts | 316° |
| 2026-05-05 11:38 | 55.36141 | 61.36707 | 3686 ft | 260 kts | 311° |
| 2026-05-05 11:38 | 55.37248 | 61.34244 | 4297 ft | 260 kts | 308° |
| 2026-05-05 11:39 | 55.38322 | 61.31678 | 4921 ft | 261 kts | 306° |
| 2026-05-05 11:39 | 55.39373 | 61.29098 | 5530 ft | 262 kts | 306° |
| 2026-05-05 11:39 | 55.40426 | 61.26490 | 6142 ft | 264 kts | 306° |
| 2026-05-05 11:39 | 55.41414 | 61.23813 | 6759 ft | 266 kts | 295° |
| 2026-05-05 11:40 | 55.41915 | 61.20692 | 7387 ft | 271 kts | 277° |
| 2026-05-05 11:40 | 55.41939 | 61.17335 | 8021 ft | 275 kts | 270° |
| 2026-05-05 11:40 | 55.41883 | 61.13976 | 8639 ft | 278 kts | 270° |
| 2026-05-05 11:40 | 55.41822 | 61.10599 | 9264 ft | 281 kts | 270° |
| 2026-05-05 11:41 | 55.41767 | 61.07175 | 9888 ft | 284 kts | 270° |
| 2026-05-05 11:41 | 55.41716 | 61.03702 | 10513 ft | 287 kts | 271° |
| 2026-05-05 11:41 | 55.41667 | 61.00206 | 11143 ft | 290 kts | 271° |
| 2026-05-05 11:41 | 55.41618 | 60.96654 | 11764 ft | 292 kts | 271° |
| 2026-05-05 11:42 | 55.41568 | 60.93095 | 12386 ft | 295 kts | 271° |
| 2026-05-05 11:42 | 55.41517 | 60.89462 | 13015 ft | 298 kts | 271° |
| 2026-05-05 11:42 | 55.41455 | 60.85833 | 13636 ft | 302 kts | 269° |
| 2026-05-05 11:42 | 55.41120 | 60.82166 | 14262 ft | 307 kts | 258° |
| 2026-05-05 11:43 | 55.40420 | 60.78625 | 14896 ft | 312 kts | 251° |
| 2026-05-05 11:43 | 55.39568 | 60.75107 | 15530 ft | 315 kts | 250° |
| 2026-05-05 11:43 | 55.38695 | 60.71597 | 16163 ft | 318 kts | 250° |
| 2026-05-05 11:43 | 55.37810 | 60.68035 | 16799 ft | 321 kts | 250° |
| 2026-05-05 11:44 | 55.36925 | 60.64457 | 17437 ft | 324 kts | 250° |
| 2026-05-05 11:44 | 55.36030 | 60.60823 | 18081 ft | 328 kts | 250° |
| 2026-05-05 11:44 | 55.35119 | 60.57127 | 18739 ft | 331 kts | 250° |
| 2026-05-05 11:44 | 55.34210 | 60.53440 | 19388 ft | 334 kts | 250° |
| 2026-05-05 11:45 | 55.33288 | 60.49698 | 20050 ft | 336 kts | 250° |
| 2026-05-05 11:45 | 55.32363 | 60.45953 | 20711 ft | 339 kts | 250° |
| 2026-05-05 11:45 | 55.31426 | 60.42164 | 21383 ft | 340 kts | 250° |
| 2026-05-05 11:45 | 55.30479 | 60.38334 | 22064 ft | 342 kts | 250° |
| 2026-05-05 11:46 | 55.29534 | 60.34524 | 22741 ft | 343 kts | 249° |
| 2026-05-05 11:46 | 55.28597 | 60.30738 | 23389 ft | 345 kts | 249° |
| 2026-05-05 11:46 | 55.27631 | 60.26842 | 23795 ft | 354 kts | 249° |
| 2026-05-05 11:46 | 55.26630 | 60.22826 | 24203 ft | 362 kts | 249° |
| 2026-05-05 11:47 | 55.25623 | 60.18790 | 24603 ft | 369 kts | 248° |
| 2026-05-05 11:47 | 55.24680 | 60.14554 | 25004 ft | 374 kts | 254° |
| 2026-05-05 11:47 | 55.24013 | 60.10170 | 25400 ft | 379 kts | 261° |
| 2026-05-05 11:47 | 55.23623 | 60.05593 | 25786 ft | 383 kts | 265° |
| 2026-05-05 11:48 | 55.23114 | 59.96043 | 25961 ft | 410 kts | 266° |
| 2026-05-05 11:48 | 55.22855 | 59.91041 | 25989 ft | 423 kts | 266° |
| 2026-05-05 11:48 | 55.22574 | 59.85833 | 26015 ft | 436 kts | 266° |
| 2026-05-05 11:49 | 55.22279 | 59.80494 | 26039 ft | 448 kts | 266° |
| 2026-05-05 11:49 | 55.21991 | 59.75028 | 26064 ft | 458 kts | 268° |
| 2026-05-05 11:49 | 55.21838 | 59.69440 | 26406 ft | 459 kts | 271° |
| 2026-05-05 11:49 | 55.21848 | 59.63884 | 26789 ft | 458 kts | 274° |
| 2026-05-05 11:50 | 55.21977 | 59.58380 | 27173 ft | 458 kts | 275° |
| 2026-05-05 11:50 | 55.22126 | 59.52769 | 27565 ft | 458 kts | 275° |
| 2026-05-05 11:50 | 55.22272 | 59.47279 | 27948 ft | 457 kts | 275° |
| 2026-05-05 11:50 | 55.22419 | 59.41742 | 28338 ft | 457 kts | 275° |
| 2026-05-05 11:51 | 55.22564 | 59.36168 | 28732 ft | 455 kts | 275° |
| 2026-05-05 11:51 | 55.22702 | 59.30697 | 29121 ft | 454 kts | 274° |
| 2026-05-05 11:51 | 55.22837 | 59.25192 | 29520 ft | 453 kts | 274° |
| 2026-05-05 11:51 | 55.22969 | 59.19732 | 29899 ft | 451 kts | 274° |
| 2026-05-05 11:52 | 55.23099 | 59.14268 | 30298 ft | 449 kts | 274° |
| 2026-05-05 11:52 | 55.23225 | 59.08816 | 30685 ft | 447 kts | 274° |
| 2026-05-05 11:52 | 55.23348 | 59.03454 | 31016 ft | 445 kts | 274° |
| 2026-05-05 11:52 | 55.23471 | 58.98024 | 31354 ft | 443 kts | 274° |
| 2026-05-05 11:53 | 55.23590 | 58.92670 | 31586 ft | 444 kts | 274° |
| 2026-05-05 11:53 | 55.23706 | 58.87295 | 31804 ft | 445 kts | 274° |
| 2026-05-05 11:53 | 55.23821 | 58.81852 | 32033 ft | 445 kts | 274° |
| 2026-05-05 11:53 | 55.23930 | 58.76500 | 32259 ft | 445 kts | 274° |
| 2026-05-05 11:54 | 55.24040 | 58.71118 | 32472 ft | 446 kts | 274° |
| 2026-05-05 11:54 | 55.24148 | 58.65662 | 32707 ft | 446 kts | 274° |
| 2026-05-05 11:54 | 55.24250 | 58.60268 | 32929 ft | 445 kts | 275° |
| 2026-05-05 11:54 | 55.24352 | 58.54915 | 33140 ft | 445 kts | 274° |
| 2026-05-05 11:55 | 55.24453 | 58.49476 | 33358 ft | 445 kts | 275° |
| 2026-05-05 11:55 | 55.24549 | 58.44123 | 33574 ft | 444 kts | 274° |
| 2026-05-05 11:55 | 55.24646 | 58.38695 | 33790 ft | 444 kts | 275° |
| 2026-05-05 11:55 | 55.24737 | 58.33347 | 33990 ft | 443 kts | 274° |
| 2026-05-05 11:56 | 55.24826 | 58.27990 | 34206 ft | 442 kts | 274° |
| 2026-05-05 11:56 | 55.24912 | 58.22646 | 34438 ft | 441 kts | 274° |
| 2026-05-05 11:56 | 55.24996 | 58.17302 | 34672 ft | 441 kts | 274° |
| 2026-05-05 11:56 | 55.25127 | 58.11913 | 34888 ft | 439 kts | 276° |
| 2026-05-05 11:57 | 55.25394 | 58.06647 | 35134 ft | 437 kts | 278° |
| 2026-05-05 11:57 | 55.25708 | 58.01349 | 35364 ft | 436 kts | 278° |
| 2026-05-05 11:57 | 55.26022 | 57.96121 | 35601 ft | 434 kts | 278° |
| 2026-05-05 11:57 | 55.26334 | 57.90927 | 35837 ft | 433 kts | 278° |
| 2026-05-05 11:58 | 55.26649 | 57.85652 | 35950 ft | 435 kts | 277° |
| 2026-05-05 11:58 | 55.26957 | 57.80409 | 35963 ft | 439 kts | 277° |
| 2026-05-05 11:58 | 55.27578 | 57.69685 | 35975 ft | 447 kts | 277° |
| 2026-05-05 11:59 | 55.28199 | 57.58770 | 35964 ft | 454 kts | 278° |
| 2026-05-05 11:59 | 55.28816 | 57.47780 | 35971 ft | 458 kts | 278° |
| 2026-05-05 12:00 | 55.29429 | 57.36674 | 35759 ft | 460 kts | 278° |
| 2026-05-05 12:00 | 55.29731 | 57.31146 | 35868 ft | 459 kts | 277° |
| 2026-05-05 12:00 | 55.30034 | 57.25550 | 35920 ft | 461 kts | 277° |
| 2026-05-05 12:01 | 55.30628 | 57.14395 | 35956 ft | 461 kts | 277° |
| 2026-05-05 12:01 | 55.31207 | 57.03266 | 35971 ft | 461 kts | 277° |
| 2026-05-05 12:02 | 55.31782 | 56.92069 | 35971 ft | 461 kts | 277° |
| 2026-05-05 12:02 | 55.32347 | 56.80933 | 35960 ft | 461 kts | 277° |
| 2026-05-05 12:03 | 55.32904 | 56.69764 | 35969 ft | 460 kts | 277° |
| 2026-05-05 12:03 | 55.33449 | 56.58634 | 35966 ft | 460 kts | 277° |
| 2026-05-05 12:04 | 55.33984 | 56.47468 | 35965 ft | 460 kts | 277° |
| 2026-05-05 12:04 | 55.34509 | 56.36326 | 35956 ft | 460 kts | 277° |
| 2026-05-05 12:05 | 55.35020 | 56.25200 | 35962 ft | 460 kts | 276° |
| 2026-05-05 12:05 | 55.35523 | 56.14081 | 35963 ft | 460 kts | 276° |
| 2026-05-05 12:06 | 55.36019 | 56.02882 | 35958 ft | 460 kts | 276° |
| 2026-05-05 12:06 | 55.36502 | 55.91746 | 35973 ft | 460 kts | 276° |
| 2026-05-05 12:07 | 55.36977 | 55.80585 | 35964 ft | 460 kts | 276° |
| 2026-05-05 12:07 | 55.37443 | 55.69397 | 35956 ft | 460 kts | 277° |
| 2026-05-05 12:08 | 55.37897 | 55.58279 | 35953 ft | 460 kts | 277° |
| 2026-05-05 12:08 | 55.38343 | 55.47068 | 35962 ft | 460 kts | 276° |
| 2026-05-05 12:09 | 55.38778 | 55.35934 | 35967 ft | 459 kts | 276° |
| 2026-05-05 12:09 | 55.39199 | 55.24748 | 35967 ft | 460 kts | 275° |
| 2026-05-05 12:10 | 55.39421 | 55.13547 | 35959 ft | 460 kts | 274° |
| 2026-05-05 12:10 | 55.39578 | 55.02385 | 35965 ft | 459 kts | 274° |
| 2026-05-05 12:11 | 55.39746 | 54.91177 | 35946 ft | 459 kts | 274° |
| 2026-05-05 12:11 | 55.39912 | 54.79958 | 35940 ft | 459 kts | 274° |
| 2026-05-05 12:12 | 55.40063 | 54.68844 | 35941 ft | 459 kts | 274° |
| 2026-05-05 12:12 | 55.40206 | 54.57619 | 35934 ft | 459 kts | 274° |
| 2026-05-05 12:13 | 55.40340 | 54.46436 | 35940 ft | 459 kts | 274° |
| 2026-05-05 12:13 | 55.40465 | 54.35244 | 35931 ft | 459 kts | 273° |
| 2026-05-05 12:14 | 55.40581 | 54.24083 | 35918 ft | 459 kts | 272° |
| 2026-05-05 12:14 | 55.40687 | 54.12946 | 35914 ft | 459 kts | 272° |
| 2026-05-05 12:15 | 55.40780 | 54.01761 | 35910 ft | 459 kts | 272° |
| 2026-05-05 12:15 | 55.40862 | 53.90554 | 35910 ft | 459 kts | 272° |
| 2026-05-05 12:16 | 55.40937 | 53.79365 | 35913 ft | 459 kts | 272° |
| 2026-05-05 12:16 | 55.41002 | 53.68244 | 35914 ft | 458 kts | 272° |
| 2026-05-05 12:17 | 55.41061 | 53.57099 | 35913 ft | 458 kts | 272° |
| 2026-05-05 12:17 | 55.41108 | 53.45903 | 35924 ft | 458 kts | 272° |
| 2026-05-05 12:18 | 55.41143 | 53.34784 | 35924 ft | 457 kts | 271° |
| 2026-05-05 12:18 | 55.41164 | 53.23656 | 35919 ft | 457 kts | 271° |
| 2026-05-05 12:19 | 55.41180 | 53.12518 | 35919 ft | 457 kts | 271° |
| 2026-05-05 12:19 | 55.41187 | 53.01380 | 35924 ft | 456 kts | 271° |
| 2026-05-05 12:20 | 55.41186 | 52.90297 | 35925 ft | 456 kts | 271° |
| 2026-05-05 12:20 | 55.41177 | 52.79150 | 35922 ft | 455 kts | 271° |
| 2026-05-05 12:21 | 55.41153 | 52.68039 | 35921 ft | 456 kts | 271° |
| 2026-05-05 12:21 | 55.41111 | 52.56952 | 35925 ft | 456 kts | 271° |
| 2026-05-05 12:22 | 55.41063 | 52.45869 | 35923 ft | 456 kts | 271° |
| 2026-05-05 12:22 | 55.41007 | 52.34774 | 35919 ft | 456 kts | 270° |
| 2026-05-05 12:23 | 55.40941 | 52.23636 | 35916 ft | 456 kts | 270° |
| 2026-05-05 12:23 | 55.40867 | 52.12541 | 35914 ft | 455 kts | 270° |
| 2026-05-05 12:24 | 55.40783 | 52.01482 | 35913 ft | 455 kts | 270° |
| 2026-05-05 12:24 | 55.40689 | 51.90370 | 35908 ft | 456 kts | 270° |
| 2026-05-05 12:25 | 55.40584 | 51.79283 | 35908 ft | 456 kts | 270° |
| 2026-05-05 12:25 | 55.40470 | 51.68159 | 35907 ft | 456 kts | 270° |
| 2026-05-05 12:26 | 55.40346 | 51.57133 | 35911 ft | 455 kts | 270° |
| 2026-05-05 12:26 | 55.40213 | 51.46029 | 35907 ft | 455 kts | 270° |
| 2026-05-05 12:27 | 55.40070 | 51.34887 | 35905 ft | 455 kts | 269° |
| 2026-05-05 12:27 | 55.39918 | 51.23826 | 35903 ft | 456 kts | 269° |
| 2026-05-05 12:28 | 55.39753 | 51.12753 | 35906 ft | 456 kts | 269° |
| 2026-05-05 12:28 | 55.39668 | 51.01590 | 35905 ft | 456 kts | 271° |
| 2026-05-05 12:29 | 55.39620 | 50.90523 | 35906 ft | 455 kts | 271° |
| 2026-05-05 12:29 | 55.39558 | 50.79461 | 35909 ft | 455 kts | 270° |
| 2026-05-05 12:30 | 55.39481 | 50.68344 | 35909 ft | 455 kts | 270° |
| 2026-05-05 12:30 | 55.39394 | 50.57283 | 35907 ft | 455 kts | 270° |
| 2026-05-05 12:31 | 55.39296 | 50.46215 | 35899 ft | 455 kts | 270° |
| 2026-05-05 12:31 | 55.39189 | 50.35162 | 35893 ft | 455 kts | 270° |
| 2026-05-05 12:32 | 55.39072 | 50.24038 | 35888 ft | 455 kts | 270° |
| 2026-05-05 12:32 | 55.38947 | 50.12989 | 35891 ft | 455 kts | 270° |
| 2026-05-05 12:33 | 55.38812 | 50.01858 | 35891 ft | 455 kts | 270° |
| 2026-05-05 12:33 | 55.39051 | 49.90828 | 35888 ft | 453 kts | 275° |
| 2026-05-05 12:34 | 55.39597 | 49.79826 | 35886 ft | 453 kts | 276° |
| 2026-05-05 12:34 | 55.40149 | 49.68803 | 35887 ft | 452 kts | 276° |
| 2026-05-05 12:35 | 55.40685 | 49.57830 | 35887 ft | 452 kts | 276° |
| 2026-05-05 12:35 | 55.41210 | 49.46843 | 35885 ft | 452 kts | 276° |
| 2026-05-05 12:36 | 55.41721 | 49.35875 | 35884 ft | 453 kts | 276° |
| 2026-05-05 12:36 | 55.42217 | 49.24882 | 35882 ft | 453 kts | 275° |
| 2026-05-05 12:37 | 55.42705 | 49.13871 | 35885 ft | 453 kts | 275° |
| 2026-05-05 12:37 | 55.43184 | 49.02912 | 35887 ft | 452 kts | 275° |
| 2026-05-05 12:38 | 55.43658 | 48.91898 | 35883 ft | 452 kts | 275° |
| 2026-05-05 12:38 | 55.44123 | 48.80883 | 35880 ft | 451 kts | 275° |
| 2026-05-05 12:39 | 55.44570 | 48.69949 | 35881 ft | 451 kts | 275° |
| 2026-05-05 12:39 | 55.45138 | 48.58993 | 35882 ft | 450 kts | 278° |
| 2026-05-05 12:40 | 55.46279 | 48.48215 | 35880 ft | 450 kts | 284° |
| 2026-05-05 12:40 | 55.47984 | 48.37664 | 35877 ft | 450 kts | 287° |
| 2026-05-05 12:41 | 55.49803 | 48.27187 | 35876 ft | 450 kts | 286° |
| 2026-05-05 12:41 | 55.51618 | 48.16667 | 35876 ft | 449 kts | 286° |
| 2026-05-05 12:42 | 55.53416 | 48.06173 | 35876 ft | 449 kts | 286° |
| 2026-05-05 12:42 | 55.55202 | 47.95689 | 35880 ft | 448 kts | 286° |
| 2026-05-05 12:43 | 55.56986 | 47.85148 | 35886 ft | 448 kts | 286° |
| 2026-05-05 12:43 | 55.58749 | 47.74676 | 35881 ft | 448 kts | 286° |
| 2026-05-05 12:44 | 55.60516 | 47.64125 | 35877 ft | 447 kts | 286° |
| 2026-05-05 12:44 | 55.62259 | 47.53653 | 35884 ft | 447 kts | 286° |
| 2026-05-05 12:45 | 55.64002 | 47.43112 | 35879 ft | 447 kts | 286° |
| 2026-05-05 12:45 | 55.65728 | 47.32626 | 35862 ft | 446 kts | 285° |
| 2026-05-05 12:46 | 55.67450 | 47.22060 | 35874 ft | 446 kts | 285° |
| 2026-05-05 12:46 | 55.69148 | 47.11581 | 35881 ft | 446 kts | 285° |
| 2026-05-05 12:47 | 55.70837 | 47.01084 | 35872 ft | 445 kts | 285° |
| 2026-05-05 12:47 | 55.72522 | 46.90569 | 35872 ft | 444 kts | 285° |
| 2026-05-05 12:48 | 55.74198 | 46.80061 | 35869 ft | 445 kts | 285° |
| 2026-05-05 12:48 | 55.75863 | 46.69575 | 35863 ft | 444 kts | 285° |
| 2026-05-05 12:49 | 55.77521 | 46.59039 | 35865 ft | 444 kts | 285° |
| 2026-05-05 12:49 | 55.78906 | 46.48457 | 35851 ft | 443 kts | 279° |
| 2026-05-05 12:50 | 55.79671 | 46.37589 | 35842 ft | 442 kts | 274° |
| 2026-05-05 12:50 | 55.80039 | 46.26763 | 35841 ft | 442 kts | 272° |
| 2026-05-05 12:51 | 55.80384 | 46.15899 | 35839 ft | 442 kts | 272° |
| 2026-05-05 12:51 | 55.80720 | 46.05033 | 35840 ft | 442 kts | 272° |
| 2026-05-05 12:52 | 55.81048 | 45.94167 | 35842 ft | 442 kts | 272° |
| 2026-05-05 12:52 | 55.81369 | 45.83298 | 35849 ft | 441 kts | 272° |
| 2026-05-05 12:53 | 55.81680 | 45.72428 | 35847 ft | 441 kts | 272° |
| 2026-05-05 12:53 | 55.81982 | 45.61553 | 35846 ft | 441 kts | 272° |
| 2026-05-05 12:54 | 55.82415 | 45.45330 | 35844 ft | 441 kts | 272° |
| 2026-05-05 12:55 | 55.82693 | 45.34478 | 35841 ft | 441 kts | 271° |
| 2026-05-05 12:55 | 55.82963 | 45.23584 | 35835 ft | 441 kts | 271° |
| 2026-05-05 12:56 | 55.83224 | 45.12753 | 35832 ft | 440 kts | 271° |
| 2026-05-05 12:56 | 55.83474 | 45.01924 | 35832 ft | 441 kts | 271° |
| 2026-05-05 12:57 | 55.83709 | 44.91079 | 35833 ft | 441 kts | 271° |
| 2026-05-05 12:57 | 55.83934 | 44.80235 | 35833 ft | 440 kts | 271° |
| 2026-05-05 12:58 | 55.84154 | 44.69424 | 35830 ft | 439 kts | 271° |
| 2026-05-05 12:58 | 55.84368 | 44.58615 | 35837 ft | 439 kts | 271° |
| 2026-05-05 12:59 | 55.84573 | 44.47811 | 35834 ft | 439 kts | 271° |
| 2026-05-05 12:59 | 55.84770 | 44.36967 | 35830 ft | 440 kts | 271° |
| 2026-05-05 13:00 | 55.85045 | 44.20762 | 35840 ft | 438 kts | 271° |
| 2026-05-05 13:01 | 55.85383 | 43.99168 | 35836 ft | 438 kts | 271° |
| 2026-05-05 13:01 | 55.85538 | 43.88383 | 35833 ft | 438 kts | 270° |
| 2026-05-05 13:02 | 55.85685 | 43.77547 | 35828 ft | 438 kts | 271° |
| 2026-05-05 13:02 | 55.85824 | 43.66803 | 35829 ft | 438 kts | 271° |
| 2026-05-05 13:03 | 55.85950 | 43.56024 | 35823 ft | 437 kts | 271° |
| 2026-05-05 13:03 | 55.86063 | 43.45228 | 35828 ft | 437 kts | 271° |
| 2026-05-05 13:04 | 55.86167 | 43.34443 | 35829 ft | 437 kts | 270° |
| 2026-05-05 13:04 | 55.86266 | 43.23723 | 35825 ft | 437 kts | 270° |
| 2026-05-05 13:05 | 55.86359 | 43.12933 | 35823 ft | 436 kts | 270° |
| 2026-05-05 13:05 | 55.86443 | 43.02168 | 35833 ft | 436 kts | 270° |
| 2026-05-05 13:06 | 55.86517 | 42.91489 | 35830 ft | 436 kts | 270° |
| 2026-05-05 13:06 | 55.86583 | 42.80730 | 35829 ft | 436 kts | 270° |
| 2026-05-05 13:07 | 55.86640 | 42.69945 | 35826 ft | 436 kts | 270° |
| 2026-05-05 13:07 | 55.86689 | 42.59240 | 35830 ft | 436 kts | 270° |
| 2026-05-05 13:08 | 55.86728 | 42.48481 | 35828 ft | 435 kts | 270° |
| 2026-05-05 13:08 | 55.86759 | 42.37744 | 35828 ft | 435 kts | 270° |
| 2026-05-05 13:09 | 55.86780 | 42.27061 | 35829 ft | 435 kts | 269° |
| 2026-05-05 13:09 | 55.86794 | 42.16290 | 35828 ft | 434 kts | 269° |
| 2026-05-05 13:10 | 55.86799 | 42.05637 | 35826 ft | 435 kts | 269° |
| 2026-05-05 13:10 | 55.86790 | 41.94910 | 35823 ft | 434 kts | 269° |
| 2026-05-05 13:11 | 55.86058 | 41.84296 | 35822 ft | 434 kts | 255° |
| 2026-05-05 13:11 | 55.83704 | 41.74511 | 35819 ft | 436 kts | 240° |
| 2026-05-05 13:12 | 55.79944 | 41.66111 | 35820 ft | 439 kts | 229° |
| 2026-05-05 13:12 | 55.75750 | 41.58266 | 35819 ft | 440 kts | 229° |
| 2026-05-05 13:13 | 55.71506 | 41.50470 | 35823 ft | 442 kts | 228° |
| 2026-05-05 13:13 | 55.67255 | 41.42699 | 35821 ft | 441 kts | 229° |
| 2026-05-05 13:14 | 55.62991 | 41.34900 | 35823 ft | 442 kts | 229° |
| 2026-05-05 13:14 | 55.59597 | 41.26034 | 35826 ft | 438 kts | 246° |
| 2026-05-05 13:15 | 55.57847 | 41.15833 | 35830 ft | 436 kts | 262° |
| 2026-05-05 13:15 | 55.57493 | 41.05178 | 35833 ft | 436 kts | 268° |
| 2026-05-05 13:16 | 55.57307 | 40.94506 | 35837 ft | 436 kts | 268° |
| 2026-05-05 13:16 | 55.57109 | 40.83876 | 35837 ft | 435 kts | 268° |
| 2026-05-05 13:17 | 55.56904 | 40.73499 | 35709 ft | 414 kts | 268° |
| 2026-05-05 13:17 | 55.56694 | 40.63386 | 35578 ft | 413 kts | 268° |
| 2026-05-05 13:18 | 55.56586 | 40.58352 | 35369 ft | 414 kts | 268° |
| 2026-05-05 13:18 | 55.56474 | 40.53302 | 35073 ft | 414 kts | 268° |
| 2026-05-05 13:18 | 55.56359 | 40.48237 | 34778 ft | 414 kts | 268° |
| 2026-05-05 13:18 | 55.56233 | 40.43123 | 34443 ft | 415 kts | 267° |
| 2026-05-05 13:19 | 55.56096 | 40.38119 | 34108 ft | 415 kts | 267° |
| 2026-05-05 13:19 | 55.55953 | 40.33001 | 33772 ft | 417 kts | 266° |
| 2026-05-05 13:19 | 55.55810 | 40.27921 | 33436 ft | 418 kts | 266° |
| 2026-05-05 13:19 | 55.55666 | 40.22825 | 33099 ft | 418 kts | 266° |
| 2026-05-05 13:20 | 55.55521 | 40.17722 | 32761 ft | 419 kts | 266° |
| 2026-05-05 13:20 | 55.55371 | 40.12601 | 32419 ft | 420 kts | 266° |
| 2026-05-05 13:20 | 55.55219 | 40.07469 | 32078 ft | 421 kts | 266° |
| 2026-05-05 13:20 | 55.55121 | 40.02337 | 31739 ft | 422 kts | 269° |
| 2026-05-05 13:21 | 55.55184 | 39.97113 | 31397 ft | 424 kts | 272° |
| 2026-05-05 13:21 | 55.55406 | 39.91979 | 31059 ft | 425 kts | 274° |
| 2026-05-05 13:21 | 55.55683 | 39.86742 | 30721 ft | 427 kts | 275° |
| 2026-05-05 13:21 | 55.55964 | 39.81554 | 30375 ft | 427 kts | 275° |
| 2026-05-05 13:22 | 55.56242 | 39.76396 | 30027 ft | 427 kts | 275° |
| 2026-05-05 13:22 | 55.56520 | 39.71211 | 29676 ft | 427 kts | 275° |
| 2026-05-05 13:22 | 55.56796 | 39.66013 | 29324 ft | 428 kts | 275° |
| 2026-05-05 13:22 | 55.57070 | 39.60766 | 28974 ft | 428 kts | 275° |
| 2026-05-05 13:23 | 55.57338 | 39.55583 | 28626 ft | 428 kts | 275° |
| 2026-05-05 13:23 | 55.57614 | 39.50335 | 28273 ft | 429 kts | 275° |
| 2026-05-05 13:23 | 55.57938 | 39.45121 | 27921 ft | 430 kts | 276° |
| 2026-05-05 13:23 | 55.58280 | 39.39904 | 27574 ft | 431 kts | 276° |
| 2026-05-05 13:24 | 55.58628 | 39.34609 | 27225 ft | 432 kts | 275° |
| 2026-05-05 13:24 | 55.58968 | 39.29347 | 26591 ft | 430 kts | 275° |
| 2026-05-05 13:24 | 55.59295 | 39.24216 | 25934 ft | 424 kts | 275° |
| 2026-05-05 13:24 | 55.59623 | 39.19046 | 25257 ft | 419 kts | 275° |
| 2026-05-05 13:25 | 55.59941 | 39.13987 | 24580 ft | 420 kts | 275° |
| 2026-05-05 13:25 | 55.60258 | 39.08926 | 23902 ft | 414 kts | 275° |
| 2026-05-05 13:25 | 55.60571 | 39.03890 | 23234 ft | 411 kts | 275° |
| 2026-05-05 13:25 | 55.60878 | 38.98898 | 22559 ft | 411 kts | 275° |
| 2026-05-05 13:26 | 55.61183 | 38.93879 | 21888 ft | 408 kts | 275° |
| 2026-05-05 13:26 | 55.61477 | 38.89007 | 21262 ft | 402 kts | 275° |
| 2026-05-05 13:26 | 55.61744 | 38.84212 | 20901 ft | 378 kts | 275° |
| 2026-05-05 13:26 | 55.61977 | 38.79799 | 20804 ft | 346 kts | 274° |
| 2026-05-05 13:27 | 55.61857 | 38.75713 | 20158 ft | 331 kts | 254° |
| 2026-05-05 13:27 | 55.60887 | 38.72094 | 19421 ft | 323 kts | 237° |
| 2026-05-05 13:27 | 55.59432 | 38.69273 | 18965 ft | 311 kts | 222° |
| 2026-05-05 13:27 | 55.57615 | 38.67218 | 18859 ft | 313 kts | 211° |
| 2026-05-05 13:28 | 55.55676 | 38.65506 | 18823 ft | 310 kts | 211° |
| 2026-05-05 13:28 | 55.53762 | 38.63829 | 18379 ft | 310 kts | 211° |
| 2026-05-05 13:28 | 55.51836 | 38.62133 | 17865 ft | 310 kts | 211° |
| 2026-05-05 13:28 | 55.49913 | 38.60433 | 17427 ft | 309 kts | 211° |
| 2026-05-05 13:29 | 55.47998 | 38.58738 | 16835 ft | 313 kts | 211° |
| 2026-05-05 13:29 | 55.46016 | 38.56977 | 16004 ft | 324 kts | 211° |
| 2026-05-05 13:29 | 55.44011 | 38.55199 | 15432 ft | 325 kts | 210° |
| 2026-05-05 13:29 | 55.42003 | 38.53424 | 14967 ft | 322 kts | 210° |
| 2026-05-05 13:30 | 55.40033 | 38.51686 | 14502 ft | 319 kts | 210° |
| 2026-05-05 13:30 | 55.38074 | 38.49957 | 14093 ft | 317 kts | 210° |
| 2026-05-05 13:30 | 55.36097 | 38.48212 | 13633 ft | 315 kts | 210° |
| 2026-05-05 13:30 | 55.34161 | 38.46504 | 13171 ft | 313 kts | 210° |
| 2026-05-05 13:31 | 55.32228 | 38.44799 | 12706 ft | 311 kts | 210° |
| 2026-05-05 13:31 | 55.30312 | 38.43111 | 12254 ft | 309 kts | 210° |
| 2026-05-05 13:31 | 55.28426 | 38.41449 | 11812 ft | 307 kts | 210° |
| 2026-05-05 13:31 | 55.26519 | 38.39771 | 11372 ft | 305 kts | 210° |
| 2026-05-05 13:32 | 55.24619 | 38.38102 | 10927 ft | 304 kts | 210° |
| 2026-05-05 13:32 | 55.22741 | 38.36455 | 10477 ft | 303 kts | 210° |
| 2026-05-05 13:32 | 55.20882 | 38.34829 | 10029 ft | 302 kts | 209° |
| 2026-05-05 13:32 | 55.18993 | 38.33258 | 9602 ft | 301 kts | 205° |
| 2026-05-05 13:33 | 55.17029 | 38.32023 | 9178 ft | 300 kts | 201° |
| 2026-05-05 13:33 | 55.15074 | 38.30901 | 8836 ft | 295 kts | 201° |
| 2026-05-05 13:33 | 55.13125 | 38.29799 | 8472 ft | 289 kts | 201° |
| 2026-05-05 13:33 | 55.11335 | 38.28462 | 7993 ft | 275 kts | 220° |
| 2026-05-05 13:34 | 55.10240 | 38.25954 | 7466 ft | 260 kts | 253° |
| 2026-05-05 13:34 | 55.10197 | 38.22940 | 6997 ft | 251 kts | 284° |
| 2026-05-05 13:34 | 55.10781 | 38.20115 | 6533 ft | 245 kts | 289° |
| 2026-05-05 13:34 | 55.11359 | 38.17398 | 6131 ft | 236 kts | 287° |
| 2026-05-05 13:35 | 55.11891 | 38.14721 | 5693 ft | 231 kts | 291° |
| 2026-05-05 13:35 | 55.12875 | 38.12577 | 5257 ft | 233 kts | 324° |
| 2026-05-05 13:35 | 55.14400 | 38.11669 | 4893 ft | 232 kts | 346° |
| 2026-05-05 13:35 | 55.15953 | 38.11250 | 4504 ft | 227 kts | 346° |
| 2026-05-05 13:36 | 55.17510 | 38.10805 | 4048 ft | 225 kts | 346° |
| 2026-05-05 13:36 | 55.19039 | 38.10343 | 3587 ft | 224 kts | 345° |
| 2026-05-05 13:36 | 55.20560 | 38.09869 | 3210 ft | 223 kts | 345° |
| 2026-05-05 13:36 | 55.22080 | 38.09390 | 3013 ft | 224 kts | 345° |
| 2026-05-05 13:37 | 55.23607 | 38.08887 | 2981 ft | 215 kts | 340° |
| 2026-05-05 13:37 | 55.24924 | 38.07935 | 2969 ft | 195 kts | 323° |
| 2026-05-05 13:37 | 55.26046 | 38.06633 | 3081 ft | 195 kts | 320° |
| 2026-05-05 13:37 | 55.27146 | 38.05285 | 3022 ft | 194 kts | 320° |
| 2026-05-05 13:38 | 55.28247 | 38.03938 | 3000 ft | 193 kts | 320° |
| 2026-05-05 13:38 | 55.29358 | 38.02591 | 2981 ft | 192 kts | 321° |
| 2026-05-05 13:38 | 55.30431 | 38.01299 | 2709 ft | 183 kts | 320° |
| 2026-05-05 13:38 | 55.31445 | 38.00069 | 2421 ft | 172 kts | 320° |
| 2026-05-05 13:39 | 55.32380 | 37.98938 | 2220 ft | 157 kts | 320° |
| 2026-05-05 13:39 | 55.33229 | 37.97918 | 2013 ft | 141 kts | 319° |
| 2026-05-05 13:39 | 55.33997 | 37.96993 | 1846 ft | 129 kts | 319° |
| 2026-05-05 13:39 | 55.34744 | 37.96085 | 1712 ft | 133 kts | 317° |
| 2026-05-05 13:40 | 55.35494 | 37.95179 | 1552 ft | 130 kts | 320° |
| 2026-05-05 13:40 | 55.36240 | 37.94282 | 1375 ft | 129 kts | 320° |
| 2026-05-05 13:40 | 55.36990 | 37.93375 | 1203 ft | 133 kts | 320° |
| 2026-05-05 13:40 | 55.37737 | 37.92464 | 1022 ft | 132 kts | 319° |
| 2026-05-05 13:41 | 55.38497 | 37.91552 | 874 ft | 132 kts | 322° |
| 2026-05-05 13:41 | 55.39244 | 37.90651 | 659 ft | 128 kts | 322° |
| 2026-05-05 13:41 | 55.39971 | 37.89778 | 598 ft | 120 kts | 323° |
| 2026-05-05 13:41 | 55.40553 | 37.89050 | 596 ft | 89 kts | 327° |
| 2026-05-05 13:42 | 55.40894 | 37.88665 | 596 ft | 37 kts | 328° |
| 2026-05-05 13:42 | 55.41079 | 37.88448 | 596 ft | 24 kts | 329° |
| 2026-05-05 13:42 | 55.41202 | 37.88367 | 596 ft | 17 kts | 352° |
| 2026-05-05 13:42 | 55.41323 | 37.88350 | 596 ft | 17 kts | 355° |
| 2026-05-05 13:43 | 55.41348 | 37.88346 | 596 ft | 0 kts | 356° |
| 2026-05-05 13:43 | 55.41358 | 37.88345 | 596 ft | 3 kts | 359° |
| 2026-05-05 13:43 | 55.41389 | 37.88409 | 596 ft | 8 kts | 108° |
| 2026-05-05 13:43 | 55.41346 | 37.88488 | 596 ft | 9 kts | 145° |
| 2026-05-05 13:44 | 55.41287 | 37.88560 | 596 ft | 10 kts | 146° |
| 2026-05-05 13:44 | 55.41221 | 37.88638 | 596 ft | 12 kts | 146° |
| 2026-05-05 13:44 | 55.41150 | 37.88724 | 596 ft | 12 kts | 146° |
| 2026-05-05 13:44 | 55.41073 | 37.88814 | 596 ft | 13 kts | 147° |
| 2026-05-05 13:45 | 55.40991 | 37.88909 | 596 ft | 14 kts | 146° |
| 2026-05-05 13:45 | 55.40910 | 37.89014 | 596 ft | 14 kts | 145° |
| 2026-05-05 13:45 | 55.40829 | 37.89109 | 596 ft | 13 kts | 142° |
| 2026-05-05 13:45 | 55.40780 | 37.89244 | 596 ft | 13 kts | 102° |
| 2026-05-05 13:46 | 55.40802 | 37.89402 | 596 ft | 13 kts | 61° |
| 2026-05-05 13:46 | 55.40859 | 37.89538 | 596 ft | 13 kts | 46° |
| 2026-05-05 13:46 | 55.40917 | 37.89676 | 596 ft | 14 kts | 54° |
| 2026-05-05 13:46 | 55.40974 | 37.89822 | 596 ft | 14 kts | 56° |
| 2026-05-05 13:47 | 55.41032 | 37.89970 | 596 ft | 15 kts | 55° |
| 2026-05-05 13:47 | 55.41087 | 37.90108 | 596 ft | 12 kts | 50° |
| 2026-05-05 13:47 | 55.41162 | 37.90163 | 596 ft | 12 kts | 14° |
| 2026-05-05 13:47 | 55.41237 | 37.90223 | 596 ft | 11 kts | 6° |
| 2026-05-05 13:48 | 55.41302 | 37.90163 | 596 ft | 6 kts | 327° |
| 2026-05-05 13:48 | 55.41309 | 37.90156 | 596 ft | 4 kts | 328° |
| 2026-05-05 13:48 | 55.41379 | 37.90139 | 596 ft | 11 kts | 27° |
| 2026-05-05 13:48 | 55.41405 | 37.90180 | 596 ft | 0 kts | 54° |